Hunter, Kansas
Current Conditions -  °F | °C
As of 1:53 PM on Wednesday 17 Dec 2014 (Local Time) from KRSL Reporting Station
Overcast Overcast  
Wind Chill: 21°   Ceiling: 1500
Heat Index: 31°   Visibility: 10mi
Dew Point: 24°   Wind: 13mph
Humidity: 76%   Direction: 90°E
Pressure: 30.13"   Gusts: NA
Location:  39.23°N, 98.4°W
Report Text: KRSL 171953Z AUTO 09011KT 10SM OVC015 M01/M04 A3013 RMK AO2 SLP225 T10061044
Loading
Personal Weather Stations






























Interactive Weather Map New forecast layout! Learn more

10-Day Weather Forecast

Advertisements
Track Severe Weather on mobile